createdAt,value
2022-10-17T11:28:18.003Z,12.93
2022-10-17T11:31:11.655Z,27.42
2022-10-17T11:33:49.843Z,15.15
2022-10-17T11:36:19.534Z,19.95
2022-10-17T11:38:51.246Z,22.33
2022-10-17T11:41:38.768Z,19.42
2022-10-17T11:44:11.314Z,16.98
2022-10-17T11:46:41.655Z,15.30
2022-10-17T11:49:20.119Z,14.85
2022-10-17T12:00:21.376Z,21.35
2022-10-17T12:03:22.294Z,16.02
2022-10-17T12:05:57.818Z,14.98
2022-10-17T12:08:42.747Z,14.73
2022-10-17T12:11:39.723Z,16.77
2022-10-17T12:14:45.707Z,18.58
2022-10-17T12:17:38.876Z,16.33
2022-10-17T12:20:21.306Z,20.42
2022-10-17T12:22:49.138Z,20.25
2022-10-17T12:25:22.819Z,15.68
2022-10-17T12:27:51.144Z,11.75
2022-10-17T12:30:25.038Z,15.40
2022-10-17T12:33:25.661Z,15.35
2022-10-17T12:36:27.014Z,12.00
2022-10-17T12:38:56.448Z,13.57
2022-10-17T12:41:38.301Z,15.85
2022-10-17T12:44:14.308Z,8.93
2022-10-17T12:49:47.694Z,12.00
2022-10-17T12:52:32.438Z,11.95
2022-10-17T12:55:14.258Z,11.27
2022-10-17T12:57:59.429Z,12.95
2022-10-17T13:00:49.796Z,18.40
2022-10-17T13:03:28.103Z,8.85
2022-10-17T13:05:58.994Z,13.20
2022-10-17T13:08:32.475Z,10.25
2022-10-17T13:11:00.515Z,12.60
2022-10-17T13:13:39.257Z,16.70
2022-10-17T13:16:06.103Z,10.98
2022-10-17T13:18:32.682Z,7.57
2022-10-17T13:21:04.055Z,15.75
2022-10-17T13:23:37.796Z,10.02
2022-10-17T13:26:06.424Z,10.25
2022-10-17T13:28:35.914Z,11.32
2022-10-17T13:31:05.833Z,11.73
2022-10-17T13:33:37.992Z,9.55
2022-10-17T13:36:07.954Z,12.43
2022-10-17T13:38:38.956Z,17.33
2022-10-17T13:44:03.178Z,9.45
2022-10-17T13:46:39.288Z,10.38
2022-10-17T13:51:47.773Z,9.18
2022-10-17T13:54:33.710Z,11.60
2022-10-17T13:57:01.065Z,10.27
2022-10-17T13:59:38.102Z,6.28
2022-10-17T14:02:05.938Z,13.98
2022-10-17T14:04:57.787Z,13.13
2022-10-17T14:07:34.159Z,13.40
2022-10-17T14:10:06.338Z,13.50
2022-10-17T14:12:33.830Z,10.60
2022-10-17T14:15:11.431Z,11.68
2022-10-17T14:17:39.497Z,13.90
2022-10-17T14:25:47.036Z,10.43
2022-10-17T14:28:14.879Z,13.52
2022-10-17T14:31:02.459Z,11.57
2022-10-17T14:33:31.402Z,10.93
2022-10-17T14:36:00.830Z,12.65
2022-10-17T14:38:28.988Z,10.15
2022-10-17T14:41:22.111Z,10.70
2022-10-17T14:43:54.526Z,10.07
2022-10-17T14:46:21.146Z,11.70
2022-10-17T14:48:53.931Z,8.73
2022-10-17T14:51:20.686Z,11.05
2022-10-17T14:54:20.824Z,21.38
2022-10-17T14:56:53.060Z,14.18
2022-10-17T14:59:51.461Z,11.57
2022-10-17T15:02:11.475Z,11.77
2022-10-17T15:04:37.929Z,12.00
2022-10-17T15:07:04.711Z,9.40
2022-10-17T15:09:31.479Z,9.98
2022-10-17T15:12:11.499Z,10.88
2022-10-17T15:14:37.992Z,8.52
2022-10-17T15:17:12.496Z,9.43
2022-10-17T15:19:39.064Z,10.13
2022-10-17T15:22:05.539Z,12.20
2022-10-17T15:24:32.004Z,9.10
2022-10-17T15:26:58.603Z,9.75
2022-10-17T15:29:25.691Z,9.98
2022-10-17T15:31:52.160Z,13.25
2022-10-17T15:34:18.614Z,11.65
2022-10-17T15:36:50.775Z,15.60
2022-10-17T15:39:17.366Z,11.23
2022-10-17T15:41:44.150Z,11.05
2022-10-17T15:44:10.667Z,8.90
2022-10-17T15:46:40.818Z,11.63
2022-10-17T15:49:11.893Z,9.38
2022-10-17T15:51:38.504Z,10.85
2022-10-17T15:54:06.224Z,9.57
2022-10-17T15:56:36.311Z,11.98
2022-10-17T15:59:25.984Z,11.60
2022-10-17T16:01:52.546Z,12.25
2022-10-17T16:04:19.065Z,19.33
2022-10-17T16:06:45.615Z,17.30
2022-10-17T16:09:12.138Z,19.88
2022-10-17T16:11:43.187Z,9.48
2022-10-17T16:14:15.530Z,12.02
2022-10-17T16:16:42.607Z,12.32
2022-10-17T16:19:09.179Z,18.90
2022-10-17T16:21:38.362Z,12.57
2022-10-17T16:24:05.290Z,13.82
2022-10-17T16:26:32.123Z,15.63
2022-10-17T16:29:02.776Z,12.90
2022-10-17T16:31:34.224Z,13.65
2022-10-17T16:34:02.876Z,21.42
2022-10-17T16:36:29.571Z,13.45
2022-10-17T16:38:56.117Z,13.80
2022-10-17T16:41:28.840Z,13.68
2022-10-17T16:43:58.876Z,13.65
2022-10-17T16:46:27.532Z,15.90
2022-10-17T16:48:54.035Z,13.70
2022-10-17T16:51:21.226Z,17.05
2022-10-17T16:53:50.366Z,16.33
2022-10-17T16:56:19.192Z,14.95
2022-10-17T16:58:46.518Z,14.85
2022-10-17T17:01:15.789Z,12.85
2022-10-17T17:03:44.018Z,19.55
2022-10-17T17:06:22.493Z,14.25
2022-10-17T17:08:48.993Z,12.18
2022-10-17T17:11:18.050Z,14.20
2022-10-17T17:13:45.168Z,13.43
2022-10-17T17:16:17.628Z,19.92
2022-10-17T17:18:45.975Z,16.35
2022-10-17T17:21:13.389Z,13.38
2022-10-17T17:23:41.733Z,12.70
2022-10-17T17:26:11.699Z,11.88
2022-10-17T17:28:39.270Z,18.40
2022-10-17T17:31:10.947Z,14.80
2022-10-17T17:33:39.575Z,14.68
2022-10-17T17:36:06.876Z,13.65
2022-10-17T17:38:35.785Z,11.50
2022-10-17T17:41:03.232Z,17.33
2022-10-17T17:43:30.392Z,15.38
2022-10-17T17:45:56.910Z,13.90
2022-10-17T17:48:23.443Z,12.70
2022-10-17T17:50:50.048Z,15.65
2022-10-17T17:53:17.885Z,9.98
2022-10-17T17:55:44.947Z,15.65
2022-10-17T17:58:12.483Z,19.27
2022-10-17T18:00:40.650Z,12.98
2022-10-17T18:03:07.886Z,14.60
2022-10-17T18:05:34.457Z,15.10
2022-10-17T18:08:00.971Z,13.20
2022-10-17T18:10:28.363Z,15.27
2022-10-17T18:12:54.836Z,18.17
2022-10-17T18:15:21.330Z,16.17
2022-10-17T18:17:48.126Z,18.75
2022-10-17T18:20:14.575Z,16.52
2022-10-17T18:22:41.088Z,12.10
2022-10-17T18:25:07.904Z,12.20
2022-10-17T18:27:34.525Z,16.02
2022-10-17T18:30:01.014Z,16.77
2022-10-17T18:32:31.124Z,20.35
2022-10-17T18:34:58.126Z,11.75
2022-10-17T18:37:24.765Z,16.75
2022-10-17T18:39:54.119Z,11.73
2022-10-17T18:42:20.883Z,18.25
2022-10-17T18:44:48.020Z,13.20
2022-10-17T18:47:14.552Z,20.48
2022-10-17T18:49:41.107Z,17.20
2022-10-17T18:52:07.602Z,15.57
2022-10-17T18:54:34.721Z,16.50
2022-10-17T18:57:01.322Z,16.83
2022-10-17T18:59:27.831Z,12.27
2022-10-17T19:01:54.402Z,17.58
2022-10-17T19:04:21.413Z,21.58
2022-10-17T19:06:47.914Z,22.50
2022-10-17T19:09:15.193Z,17.52
2022-10-17T19:11:42.857Z,19.83
2022-10-17T19:14:14.051Z,21.30
2022-10-17T19:16:44.105Z,14.32
2022-10-17T19:19:18.466Z,24.73
2022-10-17T19:21:45.463Z,16.77
2022-10-17T19:24:14.938Z,22.27
2022-10-17T19:26:42.198Z,16.42
2022-10-17T19:29:10.401Z,23.20
2022-10-17T19:31:37.004Z,21.73
2022-10-17T19:34:04.470Z,22.33
2022-10-17T19:36:33.978Z,17.42
2022-10-17T19:39:11.949Z,23.45
2022-10-17T19:41:40.601Z,22.48
2022-10-17T19:44:07.063Z,20.35
2022-10-17T19:46:34.161Z,17.95
2022-10-17T19:49:01.570Z,16.85
2022-10-17T19:51:29.137Z,24.95
2022-10-17T19:53:57.921Z,26.65
2022-10-17T19:56:25.024Z,25.58
2022-10-17T19:58:52.034Z,16.08
2022-10-17T20:01:32.292Z,26.23
2022-10-17T20:03:58.847Z,26.50
2022-10-17T20:06:26.153Z,25.90
2022-10-17T20:08:52.703Z,22.88
2022-10-17T20:11:24.220Z,24.00
2022-10-17T20:13:51.467Z,22.48
2022-10-17T20:16:21.360Z,27.77
2022-10-17T20:18:49.951Z,25.98
2022-10-17T20:21:24.370Z,20.92
2022-10-17T20:23:51.077Z,20.23
2022-10-17T20:29:11.774Z,27.25
2022-10-17T20:31:40.065Z,22.95
2022-10-17T20:34:06.729Z,23.60
2022-10-17T20:36:36.894Z,24.15
2022-10-17T20:39:04.769Z,23.25
2022-10-17T20:41:31.442Z,28.40
2022-10-17T20:43:57.901Z,34.13
2022-10-17T20:46:38.485Z,32.65
2022-10-17T20:49:14.604Z,25.77
2022-10-17T20:51:41.428Z,25.63
2022-10-17T20:54:08.264Z,26.17
2022-10-17T20:56:34.956Z,27.58
2022-10-17T20:59:04.027Z,25.58
2022-10-17T21:01:32.073Z,20.02
2022-10-17T21:04:06.124Z,21.75
2022-10-17T21:06:42.638Z,21.02
2022-10-17T21:09:09.227Z,25.63
2022-10-17T21:11:35.677Z,27.55
2022-10-17T21:14:04.982Z,18.73
2022-10-17T21:16:33.155Z,21.27
2022-10-17T21:19:00.148Z,20.55
2022-10-17T21:21:32.678Z,19.95
2022-10-17T21:24:01.908Z,23.52
2022-10-17T21:26:29.087Z,26.05
2022-10-17T21:28:55.755Z,19.85
2022-10-17T21:31:24.884Z,23.42
2022-10-17T21:33:56.415Z,19.05
2022-10-17T21:36:24.652Z,26.48
2022-10-17T21:38:53.925Z,22.65
2022-10-17T21:41:22.904Z,31.63
2022-10-17T21:43:54.270Z,25.13
2022-10-17T21:46:21.587Z,20.95
2022-10-17T21:48:49.241Z,23.00
2022-10-17T21:51:17.987Z,25.17
2022-10-17T21:53:45.073Z,25.55
2022-10-17T21:56:18.091Z,17.90
2022-10-17T21:58:45.830Z,28.42
2022-10-17T22:01:13.533Z,27.65
2022-10-17T22:03:45.678Z,20.33
2022-10-17T22:06:38.689Z,19.50
2022-10-17T22:09:04.357Z,23.52
2022-10-17T22:11:32.496Z,27.42
2022-10-17T22:14:01.373Z,19.90
2022-10-17T22:16:28.116Z,29.20
2022-10-17T22:19:03.155Z,20.20
2022-10-17T22:21:32.555Z,20.85
2022-10-17T22:24:01.912Z,24.35
2022-10-17T22:26:30.496Z,20.25
2022-10-17T22:28:57.330Z,29.27
2022-10-17T22:31:24.071Z,21.05
2022-10-17T22:33:50.884Z,18.98
2022-10-17T22:36:17.781Z,21.52
2022-10-17T22:38:44.432Z,25.70
2022-10-17T22:41:11.019Z,26.35
2022-10-17T22:43:37.735Z,23.52
2022-10-17T22:46:06.198Z,23.25
2022-10-17T22:48:32.990Z,22.33
2022-10-17T22:51:00.221Z,28.70
2022-10-17T22:53:27.225Z,28.60
2022-10-17T22:55:57.749Z,20.90
2022-10-17T22:58:26.322Z,27.13
2022-10-17T23:00:53.647Z,24.77
2022-10-17T23:03:21.598Z,23.27
2022-10-17T23:05:48.891Z,23.30
2022-10-17T23:08:17.893Z,27.00
2022-10-17T23:10:48.318Z,27.17
2022-10-17T23:13:15.598Z,26.27
2022-10-17T23:15:42.848Z,22.08
2022-10-17T23:18:10.142Z,28.70
2022-10-17T23:20:37.840Z,22.75
2022-10-17T23:23:05.034Z,31.48
2022-10-17T23:25:34.524Z,27.35
2022-10-17T23:28:01.637Z,21.73
2022-10-17T23:30:28.421Z,26.40
2022-10-17T23:32:54.925Z,30.65
2022-10-17T23:35:21.443Z,27.85
2022-10-17T23:37:47.886Z,25.27
2022-10-17T23:40:14.414Z,27.05
2022-10-17T23:42:40.947Z,25.33
2022-10-17T23:45:08.193Z,23.75
2022-10-17T23:47:34.666Z,27.38
2022-10-17T23:50:01.151Z,26.55
2022-10-17T23:52:27.674Z,19.95
2022-10-17T23:54:54.183Z,26.90
2022-10-17T23:57:20.699Z,27.42
2022-10-17T23:59:47.203Z,21.33
